Slaughter, Louisiana
Current Conditions -  °F | °C
As of 10:53 AM on Friday 31 Oct 2014 (Local Time) from KBTR Reporting Station
Clear Clear  
Wind Chill: 69°   Ceiling: Unl
Heat Index: 69°   Visibility: 10mi
Dew Point: 47°   Wind: 9mph
Humidity: 45%   Direction: 330°NNW
Pressure: 30.09"   Gusts: NA
Location:  30.72°N, 91.14°W
Report Text: KBTR 311553Z 33008KT 10SM CLR 21/08 A3009 RMK AO2 SLP188 T02060083
Loading
Personal Weather Stations






























Interactive Weather Map
Tropical Storm Tracking
New forecast layout! Learn more

10-Day Weather Forecast

Advertisements
Track Severe Weather on mobile